createdAt,value
2023-03-02T03:57:21.882Z,83.23
2023-03-02T03:59:48.587Z,84.78
2023-03-02T04:02:14.947Z,86.52
2023-03-02T04:04:42.651Z,87.22
2023-03-02T04:07:13.464Z,87.94
2023-03-02T04:09:41.833Z,88.36
2023-03-02T04:12:11.042Z,88.47
2023-03-02T04:14:39.772Z,88.74
2023-03-02T04:17:06.513Z,88.80
2023-03-02T04:19:35.584Z,88.99
2023-03-02T04:22:02.997Z,89.13
2023-03-02T04:24:30.562Z,89.18
2023-03-02T04:26:59.643Z,89.27
2023-03-02T04:29:26.414Z,89.23
2023-03-02T04:31:53.769Z,88.96
2023-03-02T04:34:21.518Z,88.82
2023-03-02T04:36:48.490Z,88.89
2023-03-02T04:39:16.236Z,88.89
2023-03-02T04:41:46.407Z,88.92
2023-03-02T04:44:13.506Z,88.86
2023-03-02T04:46:41.795Z,88.74
2023-03-02T04:49:09.634Z,88.67
2023-03-02T04:51:37.510Z,88.62
2023-03-02T04:54:09.944Z,88.16
2023-03-02T04:56:36.274Z,87.50
2023-03-02T04:59:02.638Z,83.91
2023-03-02T05:01:29.046Z,82.70
2023-03-02T05:03:55.481Z,85.29
2023-03-02T05:06:21.933Z,86.37
2023-03-02T05:08:48.248Z,87.45
2023-03-02T05:11:15.350Z,88.17
2023-03-02T05:13:41.737Z,88.53
2023-03-02T05:16:08.089Z,88.55
2023-03-02T05:18:34.459Z,88.48
2023-03-02T05:21:00.780Z,88.56
2023-03-02T05:23:27.098Z,88.53
2023-03-02T05:25:54.771Z,88.08
2023-03-02T05:28:22.114Z,86.99
2023-03-02T05:30:48.841Z,85.52
2023-03-02T05:33:15.681Z,83.92
2023-03-02T05:35:42.323Z,82.60
2023-03-02T05:38:09.152Z,82.36
2023-03-02T05:40:35.467Z,82.96
2023-03-02T05:43:01.797Z,82.37
2023-03-02T05:45:30.227Z,81.83
2023-03-02T05:47:56.610Z,81.21
2023-03-02T05:50:23.360Z,81.99
2023-03-02T05:52:49.930Z,85.03
2023-03-02T05:55:16.892Z,85.53
2023-03-02T05:57:43.577Z,85.86
2023-03-02T06:00:11.136Z,85.67
2023-03-02T06:02:40.878Z,85.04
2023-03-02T06:05:08.813Z,84.27
2023-03-02T06:07:35.098Z,82.90
2023-03-02T06:10:01.716Z,81.68
2023-03-02T06:12:28.908Z,81.31
2023-03-02T06:14:55.209Z,81.59
2023-03-02T06:17:21.545Z,82.59
2023-03-02T06:19:47.885Z,80.79
2023-03-02T06:22:14.167Z,80.67
2023-03-02T06:24:40.467Z,80.91
2023-03-02T06:27:06.734Z,81.45
2023-03-02T06:29:33.048Z,82.17
2023-03-02T06:31:59.468Z,82.71
2023-03-02T06:34:25.901Z,83.52
2023-03-02T07:56:11.114Z,80.03
2023-03-02T07:58:37.470Z,79.28
2023-03-02T08:01:04.021Z,78.66
2023-03-02T08:03:30.436Z,78.75
2023-03-02T08:05:56.809Z,76.57
2023-03-02T08:08:23.191Z,77.07
2023-03-02T08:10:49.509Z,76.66
2023-03-02T08:13:16.201Z,73.73
2023-03-02T08:15:42.492Z,75.04
2023-03-02T08:18:08.840Z,75.23
2023-03-02T08:20:36.302Z,74.98
2023-03-02T08:23:02.580Z,78.06
2023-03-02T08:25:29.544Z,77.81
2023-03-02T08:27:55.830Z,76.25
2023-03-02T08:30:22.175Z,74.43
2023-03-02T08:32:48.593Z,75.59
2023-03-02T08:35:14.964Z,77.91
2023-03-02T08:37:41.273Z,76.40
2023-03-02T08:40:08.039Z,77.03
2023-03-02T08:42:34.884Z,79.02
2023-03-02T08:45:01.194Z,79.38
2023-03-02T08:47:27.861Z,82.06
2023-03-02T08:49:54.355Z,78.99
2023-03-02T08:52:20.647Z,79.86
2023-03-02T08:54:47.034Z,75.16
2023-03-02T08:57:13.393Z,75.79
2023-03-02T08:59:39.958Z,78.93
2023-03-02T09:02:06.571Z,81.50
2023-03-02T09:04:33.453Z,77.06
2023-03-02T09:06:59.869Z,72.30
2023-03-02T09:09:26.350Z,77.13
2023-03-02T09:11:52.850Z,77.77
2023-03-02T09:14:20.865Z,73.84
2023-03-02T09:16:47.201Z,76.68
2023-03-02T09:19:13.525Z,74.26
2023-03-02T09:21:39.972Z,72.00
2023-03-02T09:24:06.460Z,76.69
2023-03-02T09:26:32.791Z,70.38
2023-03-02T09:28:59.060Z,70.47
2023-03-02T09:31:25.503Z,72.33
2023-03-02T09:33:51.886Z,75.44
2023-03-02T09:36:23.211Z,75.60
2023-03-02T09:38:49.870Z,67.85
2023-03-02T09:41:19.230Z,68.71
2023-03-02T09:44:04.892Z,70.12
2023-03-02T09:46:42.376Z,82.39
2023-03-02T09:49:20.126Z,86.34
2023-03-02T09:51:51.068Z,87.12
2023-03-02T09:54:20.918Z,89.60
2023-03-02T09:56:48.672Z,94.18
2023-03-02T09:59:18.138Z,94.56
2023-03-02T10:02:03.445Z,94.45
2023-03-02T10:04:34.478Z,94.55
2023-03-02T10:07:09.916Z,94.07
2023-03-02T10:09:36.326Z,94.47
2023-03-02T10:12:11.920Z,92.82
2023-03-02T10:14:43.885Z,89.68
2023-03-02T10:17:29.449Z,92.65
2023-03-02T10:19:59.877Z,94.53
2023-03-02T10:22:32.151Z,95.47
2023-03-02T10:25:07.467Z,95.84
2023-03-02T10:27:41.997Z,94.80
2023-03-02T10:30:17.633Z,95.33
2023-03-02T10:32:46.348Z,92.76
2023-03-02T10:35:23.426Z,95.28
2023-03-02T10:38:01.610Z,94.69
2023-03-02T10:40:38.859Z,92.86
2023-03-02T10:43:06.906Z,93.19
2023-03-02T10:45:33.376Z,95.15
2023-03-02T10:48:04.525Z,96.11
2023-03-02T10:54:29.546Z,91.59
2023-03-02T11:25:23.041Z,84.42
2023-03-02T11:27:51.703Z,74.50
2023-03-02T11:30:22.605Z,74.86
2023-03-02T12:00:36.707Z,41.63
2023-03-02T12:03:07.451Z,56.81
2023-03-02T12:05:35.887Z,52.37
2023-03-02T12:08:07.034Z,51.94
2023-03-02T12:10:37.972Z,51.95
2023-03-02T12:13:22.635Z,46.50
2023-03-02T12:15:49.535Z,51.10
2023-03-02T12:18:26.966Z,47.56
2023-03-02T12:21:02.944Z,46.02
2023-03-02T12:23:30.300Z,42.13
2023-03-02T12:26:08.004Z,44.74
2023-03-02T12:28:36.053Z,38.16
2023-03-02T12:31:07.560Z,38.13
2023-03-02T12:33:38.196Z,35.86
2023-03-02T12:36:15.960Z,41.06
2023-03-02T12:38:43.609Z,40.82
2023-03-02T12:41:09.941Z,43.85
2023-03-02T12:43:37.632Z,35.60
2023-03-02T12:46:24.773Z,32.82
2023-03-02T12:49:10.773Z,39.01
2023-03-02T12:51:47.404Z,38.47
2023-03-02T12:54:22.575Z,36.44
2023-03-02T12:56:49.830Z,36.79
2023-03-02T12:59:21.033Z,35.80
2023-03-02T13:01:47.464Z,31.52
2023-03-02T13:04:24.857Z,39.44
2023-03-02T13:06:52.647Z,31.15
2023-03-02T13:09:19.300Z,27.77
2023-03-02T13:11:46.468Z,30.24
2023-03-02T13:14:17.746Z,31.56
2023-03-02T13:16:53.379Z,31.75
2023-03-02T13:19:20.207Z,35.45
2023-03-02T13:52:39.573Z,39.43
2023-03-02T13:55:11.926Z,40.26
2023-03-02T13:57:38.339Z,41.37
2023-03-02T14:00:04.982Z,43.31
2023-03-02T14:02:33.916Z,41.30
2023-03-02T14:05:00.711Z,43.24
2023-03-02T14:07:27.066Z,40.58
2023-03-02T14:09:53.829Z,41.06
2023-03-02T14:12:28.837Z,45.34
2023-03-02T14:14:56.764Z,41.76
2023-03-02T14:17:24.334Z,47.83
2023-03-02T14:19:51.032Z,47.41
2023-03-02T14:22:45.472Z,49.63
2023-03-02T14:25:12.050Z,47.20
2023-03-02T14:27:39.237Z,50.90
2023-03-02T14:30:32.561Z,51.84
2023-03-02T14:33:00.108Z,50.06
2023-03-02T14:35:26.698Z,47.57
2023-03-02T14:37:53.265Z,48.87
2023-03-02T14:40:22.914Z,50.65
2023-03-02T14:42:50.830Z,48.82
2023-03-02T14:45:17.249Z,48.71
2023-03-02T14:47:44.761Z,51.42
2023-03-02T14:50:11.641Z,49.01
2023-03-02T14:52:41.010Z,51.82
2023-03-02T14:55:14.903Z,55.78
2023-03-02T14:57:41.658Z,56.40
2023-03-02T15:00:12.293Z,57.37
2023-03-02T15:02:43.502Z,56.99
2023-03-02T15:05:20.395Z,56.39
2023-03-02T15:07:47.351Z,57.16
2023-03-02T15:10:15.074Z,56.04
2023-03-02T15:12:42.130Z,57.00
2023-03-02T15:15:09.197Z,59.00
2023-03-02T15:17:35.535Z,59.39
2023-03-02T15:20:01.920Z,58.35
2023-03-02T15:22:28.317Z,60.07
2023-03-02T15:24:54.777Z,61.57
2023-03-02T15:27:21.622Z,60.62
2023-03-02T15:29:48.001Z,60.30
2023-03-02T15:32:14.884Z,60.76
2023-03-02T15:34:41.339Z,54.13
2023-03-02T15:37:08.879Z,53.53
2023-03-02T15:39:35.175Z,53.82
2023-03-02T15:42:01.510Z,56.06
2023-03-02T15:44:27.968Z,56.30
2023-03-02T15:46:55.085Z,57.38
2023-03-02T15:49:21.603Z,59.56
2023-03-02T15:51:48.443Z,57.11
2023-03-02T15:54:15.006Z,58.25
2023-03-02T15:56:44.394Z,56.13
2023-03-02T15:59:11.228Z,57.29
2023-03-02T16:01:37.627Z,57.11
2023-03-02T16:04:04.015Z,55.78
2023-03-02T16:06:30.416Z,56.11
2023-03-02T16:08:56.764Z,55.00
2023-03-02T16:11:24.166Z,53.11
2023-03-02T16:13:50.718Z,54.89
2023-03-02T16:16:18.013Z,55.44
2023-03-02T16:18:54.653Z,56.82
2023-03-02T16:21:21.554Z,55.93
2023-03-02T16:23:48.266Z,56.04
2023-03-02T16:26:15.788Z,57.40
2023-03-02T16:28:42.252Z,58.23
2023-03-02T16:31:10.506Z,56.21
2023-03-02T16:33:37.399Z,56.81
2023-03-02T16:36:04.035Z,55.72
2023-03-02T16:38:30.407Z,55.75
2023-03-02T16:40:57.256Z,54.70
2023-03-02T16:43:23.820Z,56.11
2023-03-02T16:45:50.902Z,54.79
2023-03-02T16:48:17.541Z,54.50
2023-03-02T16:50:45.295Z,54.15
2023-03-02T16:53:11.612Z,53.58
2023-03-02T16:55:38.298Z,53.23
2023-03-02T16:58:04.748Z,52.81
2023-03-02T17:00:31.083Z,53.25
2023-03-02T17:02:58.256Z,53.41
2023-03-02T17:05:24.699Z,53.94
2023-03-02T17:07:50.979Z,54.19
2023-03-02T17:10:19.591Z,54.67
2023-03-02T17:12:46.768Z,54.30
2023-03-02T17:15:13.667Z,53.76
2023-03-02T17:17:40.778Z,54.69
2023-03-02T17:20:08.438Z,54.89
2023-03-02T17:22:34.811Z,55.00
2023-03-02T17:25:03.486Z,55.23
2023-03-02T17:27:31.580Z,55.52
2023-03-02T17:29:57.935Z,56.54
2023-03-02T17:32:24.708Z,56.65
2023-03-02T17:34:51.267Z,57.13
2023-03-02T17:37:17.651Z,57.69
2023-03-02T17:39:44.052Z,57.70
2023-03-02T17:42:10.500Z,58.05
2023-03-02T17:44:37.859Z,58.10
2023-03-02T17:47:04.465Z,58.27
2023-03-02T17:49:31.318Z,58.62
2023-03-02T17:51:57.661Z,58.87
2023-03-02T17:54:24.463Z,59.00
2023-03-02T17:56:50.916Z,59.16
2023-03-02T17:59:17.556Z,59.09
2023-03-02T18:01:44.167Z,59.24
2023-03-02T18:04:10.623Z,59.21
2023-03-02T18:06:37.014Z,59.37
2023-03-02T18:09:03.982Z,59.48
2023-03-02T18:11:30.867Z,59.50
2023-03-02T18:13:57.194Z,59.70
2023-03-02T18:16:24.493Z,59.65
2023-03-02T18:18:53.581Z,59.93
2023-03-02T18:21:20.709Z,59.93
2023-03-02T18:23:47.034Z,60.29
2023-03-02T18:26:14.385Z,60.73
2023-03-02T18:28:40.900Z,61.00
2023-03-02T18:31:07.382Z,60.68
2023-03-02T18:33:36.587Z,60.98
2023-03-02T18:36:03.077Z,63.03
2023-03-02T18:38:29.721Z,64.77
2023-03-02T18:40:57.660Z,63.98
2023-03-02T18:43:24.313Z,64.30
2023-03-02T18:45:51.158Z,66.40
2023-03-02T18:48:17.748Z,66.84
2023-03-02T18:50:44.210Z,66.21
2023-03-02T18:53:12.867Z,66.52
2023-03-02T18:55:42.098Z,67.33
2023-03-02T18:58:15.541Z,66.58
2023-03-02T19:00:41.928Z,65.54
2023-03-02T19:03:08.701Z,66.51
2023-03-02T19:05:35.960Z,70.07
2023-03-02T19:08:02.285Z,69.86
2023-03-02T19:10:28.727Z,70.65
2023-03-02T19:12:55.145Z,71.33
2023-03-02T19:15:21.551Z,73.86
2023-03-02T19:17:48.312Z,74.45
2023-03-02T19:20:17.553Z,74.48
2023-03-02T19:22:44.008Z,73.54
2023-03-02T19:25:10.700Z,72.78
2023-03-02T19:27:37.176Z,73.56
2023-03-02T19:30:04.581Z,73.93
2023-03-02T19:32:30.998Z,74.61
2023-03-02T19:34:57.377Z,73.60
2023-03-02T19:37:23.736Z,72.83
2023-03-02T19:39:50.673Z,72.11
2023-03-02T19:42:17.210Z,72.01
2023-03-02T19:44:43.637Z,71.61
2023-03-02T19:47:10.196Z,71.55
2023-03-02T19:49:36.669Z,74.48
2023-03-02T19:52:03.410Z,76.21
2023-03-02T19:54:29.810Z,75.89
2023-03-02T19:56:56.275Z,76.34
2023-03-02T19:59:23.214Z,76.71
2023-03-02T20:01:50.708Z,77.23
2023-03-02T20:04:17.371Z,77.54
2023-03-02T20:06:44.434Z,77.64
2023-03-02T20:09:11.230Z,78.20
2023-03-02T20:11:37.781Z,78.13
2023-03-02T20:14:04.399Z,78.13
2023-03-02T20:16:32.447Z,77.24
2023-03-02T20:18:59.458Z,76.52
2023-03-02T20:21:25.863Z,77.11
2023-03-02T20:23:53.083Z,77.46
2023-03-02T20:26:21.085Z,77.40
2023-03-02T20:28:47.842Z,76.29
2023-03-02T20:31:14.833Z,75.20
2023-03-02T20:33:44.010Z,75.78
2023-03-02T20:36:13.977Z,78.27
2023-03-02T20:38:45.809Z,77.97
2023-03-02T20:41:13.117Z,77.94
2023-03-02T20:43:39.776Z,77.35
2023-03-02T20:46:07.351Z,78.61
2023-03-02T20:48:34.146Z,79.33
2023-03-02T20:51:00.840Z,79.51
2023-03-02T20:53:27.856Z,80.30
2023-03-02T20:55:55.560Z,80.01
2023-03-02T20:58:21.912Z,80.70
2023-03-02T21:00:48.376Z,80.90
2023-03-02T21:03:14.894Z,80.91
2023-03-02T21:05:41.783Z,80.80
2023-03-02T21:08:10.964Z,80.64
2023-03-02T21:10:37.438Z,80.76
2023-03-02T21:13:05.021Z,80.94
2023-03-02T21:15:31.597Z,81.52
2023-03-02T21:17:57.981Z,81.41
2023-03-02T21:20:26.541Z,81.44
2023-03-02T21:22:52.917Z,81.42
2023-03-02T21:25:19.553Z,81.77
2023-03-02T21:27:46.412Z,81.53
2023-03-02T21:30:17.717Z,81.37
2023-03-02T21:32:44.037Z,80.64
2023-03-02T21:35:11.841Z,79.40
2023-03-02T21:37:39.180Z,78.42
2023-03-02T21:40:06.264Z,78.06
2023-03-02T21:42:32.696Z,77.43
2023-03-02T21:44:59.098Z,76.81
2023-03-02T21:47:25.431Z,75.33
2023-03-02T21:49:51.800Z,74.25
2023-03-02T21:52:18.223Z,71.49
2023-03-02T21:54:44.564Z,71.30
2023-03-02T21:57:10.904Z,71.69
2023-03-02T21:59:37.474Z,72.09
2023-03-02T22:02:04.203Z,71.97
2023-03-02T22:04:30.618Z,73.11
2023-03-02T22:06:58.119Z,75.59
2023-03-02T22:09:24.427Z,76.72
2023-03-02T22:11:50.718Z,77.64
2023-03-02T22:14:17.157Z,78.81
2023-03-02T22:16:44.950Z,79.51
2023-03-02T22:19:21.585Z,78.87
2023-03-02T22:21:48.290Z,79.28
2023-03-02T22:24:19.696Z,78.58
2023-03-02T22:26:48.890Z,75.78
2023-03-02T22:29:34.187Z,74.82
2023-03-02T22:32:11.783Z,73.10
2023-03-02T22:34:39.753Z,72.40
2023-03-02T22:37:10.921Z,73.68
2023-03-02T22:39:37.286Z,75.75
2023-03-02T22:42:11.845Z,78.22
2023-03-02T22:44:38.627Z,79.74
2023-03-02T22:47:23.611Z,79.87
2023-03-02T22:49:55.070Z,80.25
2023-03-02T22:52:22.800Z,81.23
2023-03-02T22:54:49.187Z,80.57
2023-03-02T22:57:23.155Z,78.16
2023-03-02T22:59:49.652Z,78.19
2023-03-02T23:02:17.231Z,78.81
2023-03-02T23:04:44.788Z,80.65
2023-03-02T23:07:13.282Z,80.97
2023-03-02T23:09:39.749Z,80.44
2023-03-02T23:12:29.546Z,80.04
2023-03-02T23:14:56.949Z,80.32
2023-03-02T23:17:23.426Z,78.83
2023-03-02T23:19:50.537Z,79.75
2023-03-02T23:22:17.271Z,80.33
2023-03-02T23:24:43.630Z,80.70
2023-03-02T23:27:10.693Z,81.48
2023-03-02T23:29:37.062Z,81.60
2023-03-02T23:32:03.581Z,82.34
2023-03-02T23:34:30.336Z,82.39
2023-03-02T23:36:57.427Z,81.94
2023-03-02T23:39:23.829Z,81.15
2023-03-02T23:41:50.412Z,81.18
2023-03-02T23:44:17.372Z,82.16
2023-03-02T23:46:43.756Z,82.89
2023-03-02T23:49:10.227Z,79.83
2023-03-02T23:51:36.596Z,76.34
2023-03-02T23:54:04.772Z,78.03
2023-03-02T23:56:31.295Z,81.27
2023-03-02T23:58:57.638Z,82.30
